sensor_id;sensor_type;location;lat;lon;timestamp;pressure;altitude;pressure_sealevel;temperature;humidity
53262;BME280;39658;51.090;-1.786;2023-03-14T00:01:57;98257.09;;;8.43;100.00
53262;BME280;39658;51.090;-1.786;2023-03-14T00:04:24;98260.91;;;8.31;100.00
53262;BME280;39658;51.090;-1.786;2023-03-14T00:06:50;98282.25;;;7.90;100.00
53262;BME280;39658;51.090;-1.786;2023-03-14T00:09:17;98298.34;;;7.58;100.00
53262;BME280;39658;51.090;-1.786;2023-03-14T00:11:44;98305.03;;;7.32;100.00
53262;BME280;39658;51.090;-1.786;2023-03-14T00:14:12;98304.63;;;7.08;100.00
53262;BME280;39658;51.090;-1.786;2023-03-14T00:16:40;98307.41;;;6.96;100.00
53262;BME280;39658;51.090;-1.786;2023-03-14T00:19:07;98312.34;;;6.80;100.00
53262;BME280;39658;51.090;-1.786;2023-03-14T00:21:34;98324.75;;;6.68;100.00
53262;BME280;39658;51.090;-1.786;2023-03-14T00:24:01;98337.97;;;6.67;100.00
53262;BME280;39658;51.090;-1.786;2023-03-14T00:26:28;98331.06;;;6.56;100.00
53262;BME280;39658;51.090;-1.786;2023-03-14T00:28:54;98341.13;;;6.60;100.00
53262;BME280;39658;51.090;-1.786;2023-03-14T00:31:23;98357.25;;;6.56;100.00
53262;BME280;39658;51.090;-1.786;2023-03-14T00:33:51;98360.25;;;6.51;100.00
53262;BME280;39658;51.090;-1.786;2023-03-14T00:36:18;98371.59;;;6.31;100.00
53262;BME280;39658;51.090;-1.786;2023-03-14T00:38:47;98379.56;;;6.19;100.00
53262;BME280;39658;51.090;-1.786;2023-03-14T00:41:15;98375.09;;;6.10;100.00
53262;BME280;39658;51.090;-1.786;2023-03-14T00:43:42;98387.63;;;6.06;100.00
53262;BME280;39658;51.090;-1.786;2023-03-14T00:46:10;98408.69;;;6.05;100.00
53262;BME280;39658;51.090;-1.786;2023-03-14T00:48:38;98397.25;;;6.06;100.00
53262;BME280;39658;51.090;-1.786;2023-03-14T00:51:06;98416.78;;;6.02;100.00
53262;BME280;39658;51.090;-1.786;2023-03-14T00:53:35;98419.53;;;6.00;100.00
53262;BME280;39658;51.090;-1.786;2023-03-14T00:56:03;98417.03;;;5.99;100.00
53262;BME280;39658;51.090;-1.786;2023-03-14T00:58:31;98432.75;;;5.99;100.00
53262;BME280;39658;51.090;-1.786;2023-03-14T01:00:57;98436.31;;;5.98;100.00
53262;BME280;39658;51.090;-1.786;2023-03-14T01:03:24;98443.34;;;5.97;100.00
53262;BME280;39658;51.090;-1.786;2023-03-14T01:05:52;98441.31;;;5.89;100.00
53262;BME280;39658;51.090;-1.786;2023-03-14T01:08:19;98448.88;;;5.71;100.00
53262;BME280;39658;51.090;-1.786;2023-03-14T01:10:46;98453.13;;;5.51;100.00
53262;BME280;39658;51.090;-1.786;2023-03-14T01:13:13;98453.22;;;5.29;100.00
53262;BME280;39658;51.090;-1.786;2023-03-14T01:15:40;98461.72;;;5.10;100.00
53262;BME280;39658;51.090;-1.786;2023-03-14T01:18:07;98467.44;;;5.03;100.00
53262;BME280;39658;51.090;-1.786;2023-03-14T01:20:33;98476.81;;;4.95;100.00
53262;BME280;39658;51.090;-1.786;2023-03-14T01:23:01;98467.91;;;4.86;100.00
53262;BME280;39658;51.090;-1.786;2023-03-14T01:25:28;98471.13;;;4.78;100.00
53262;BME280;39658;51.090;-1.786;2023-03-14T01:27:55;98500.31;;;4.72;100.00
53262;BME280;39658;51.090;-1.786;2023-03-14T01:30:22;98503.16;;;4.69;100.00
53262;BME280;39658;51.090;-1.786;2023-03-14T01:32:48;98520.38;;;4.60;100.00
53262;BME280;39658;51.090;-1.786;2023-03-14T01:35:15;98533.78;;;4.56;100.00
53262;BME280;39658;51.090;-1.786;2023-03-14T01:37:42;98537.78;;;4.48;100.00
53262;BME280;39658;51.090;-1.786;2023-03-14T01:40:12;98550.81;;;4.37;100.00
53262;BME280;39658;51.090;-1.786;2023-03-14T01:42:45;98568.59;;;4.32;100.00
53262;BME280;39658;51.090;-1.786;2023-03-14T01:48:11;98602.09;;;4.14;100.00
53262;BME280;39658;51.090;-1.786;2023-03-14T01:50:38;98616.50;;;4.07;100.00
53262;BME280;39658;51.090;-1.786;2023-03-14T01:53:05;98625.97;;;3.97;100.00
53262;BME280;39658;51.090;-1.786;2023-03-14T01:55:33;98629.44;;;3.84;100.00
53262;BME280;39658;51.090;-1.786;2023-03-14T01:58:03;98645.84;;;3.73;100.00
53262;BME280;39658;51.090;-1.786;2023-03-14T02:00:30;98661.31;;;3.64;100.00
53262;BME280;39658;51.090;-1.786;2023-03-14T02:03:00;98658.38;;;3.68;100.00
53262;BME280;39658;51.090;-1.786;2023-03-14T02:05:31;98674.66;;;3.59;100.00
53262;BME280;39658;51.090;-1.786;2023-03-14T02:07:59;98686.97;;;3.44;100.00
53262;BME280;39658;51.090;-1.786;2023-03-14T02:10:28;98690.31;;;3.33;100.00
53262;BME280;39658;51.090;-1.786;2023-03-14T02:13:00;98704.06;;;3.35;100.00
53262;BME280;39658;51.090;-1.786;2023-03-14T02:15:28;98715.97;;;3.27;100.00
53262;BME280;39658;51.090;-1.786;2023-03-14T02:17:56;98721.69;;;3.19;100.00
53262;BME280;39658;51.090;-1.786;2023-03-14T02:20:30;98727.81;;;3.18;100.00
53262;BME280;39658;51.090;-1.786;2023-03-14T02:22:59;98724.91;;;3.10;100.00
53262;BME280;39658;51.090;-1.786;2023-03-14T02:25:33;98734.06;;;3.02;100.00
53262;BME280;39658;51.090;-1.786;2023-03-14T02:28:04;98736.97;;;2.98;100.00
53262;BME280;39658;51.090;-1.786;2023-03-14T02:30:32;98738.03;;;2.95;100.00
53262;BME280;39658;51.090;-1.786;2023-03-14T02:33:01;98751.44;;;2.89;100.00
53262;BME280;39658;51.090;-1.786;2023-03-14T02:35:32;98752.78;;;2.95;100.00
53262;BME280;39658;51.090;-1.786;2023-03-14T02:38:04;98757.38;;;2.91;100.00
53262;BME280;39658;51.090;-1.786;2023-03-14T02:40:33;98761.47;;;2.95;100.00
53262;BME280;39658;51.090;-1.786;2023-03-14T02:43:00;98765.91;;;2.93;100.00
53262;BME280;39658;51.090;-1.786;2023-03-14T02:45:40;98771.88;;;2.95;100.00
53262;BME280;39658;51.090;-1.786;2023-03-14T02:48:12;98784.13;;;2.93;100.00
53262;BME280;39658;51.090;-1.786;2023-03-14T02:50:39;98791.41;;;2.88;100.00
53262;BME280;39658;51.090;-1.786;2023-03-14T02:53:07;98799.22;;;2.88;100.00
53262;BME280;39658;51.090;-1.786;2023-03-14T02:55:34;98806.25;;;2.73;100.00
53262;BME280;39658;51.090;-1.786;2023-03-14T02:58:00;98806.00;;;2.63;100.00
53262;BME280;39658;51.090;-1.786;2023-03-14T03:00:27;98811.25;;;2.49;100.00
53262;BME280;39658;51.090;-1.786;2023-03-14T03:02:57;98813.16;;;2.32;100.00
53262;BME280;39658;51.090;-1.786;2023-03-14T03:05:24;98818.34;;;2.32;100.00
53262;BME280;39658;51.090;-1.786;2023-03-14T03:07:51;98825.31;;;2.32;100.00
53262;BME280;39658;51.090;-1.786;2023-03-14T03:10:17;98838.59;;;2.42;100.00
53262;BME280;39658;51.090;-1.786;2023-03-14T03:12:44;98839.88;;;2.49;100.00
53262;BME280;39658;51.090;-1.786;2023-03-14T03:15:11;98845.31;;;2.59;100.00
53262;BME280;39658;51.090;-1.786;2023-03-14T03:17:38;98860.13;;;2.58;100.00
53262;BME280;39658;51.090;-1.786;2023-03-14T03:20:07;98859.53;;;2.67;100.00
53262;BME280;39658;51.090;-1.786;2023-03-14T03:22:35;98874.47;;;2.64;100.00
53262;BME280;39658;51.090;-1.786;2023-03-14T03:25:02;98871.72;;;2.53;100.00
53262;BME280;39658;51.090;-1.786;2023-03-14T03:27:29;98876.28;;;2.49;100.00
53262;BME280;39658;51.090;-1.786;2023-03-14T03:29:56;98881.84;;;2.57;100.00
53262;BME280;39658;51.090;-1.786;2023-03-14T03:32:23;98888.72;;;2.58;100.00
53262;BME280;39658;51.090;-1.786;2023-03-14T03:34:50;98889.13;;;2.52;100.00
53262;BME280;39658;51.090;-1.786;2023-03-14T03:37:18;98903.19;;;2.62;100.00
53262;BME280;39658;51.090;-1.786;2023-03-14T03:39:45;98909.44;;;2.60;100.00
53262;BME280;39658;51.090;-1.786;2023-03-14T03:42:12;98902.00;;;2.68;100.00
53262;BME280;39658;51.090;-1.786;2023-03-14T03:44:38;98899.47;;;2.66;100.00
53262;BME280;39658;51.090;-1.786;2023-03-14T03:47:05;98900.59;;;2.62;100.00
53262;BME280;39658;51.090;-1.786;2023-03-14T03:49:32;98901.50;;;2.76;100.00
53262;BME280;39658;51.090;-1.786;2023-03-14T03:51:59;98898.38;;;2.98;100.00
53262;BME280;39658;51.090;-1.786;2023-03-14T03:54:27;98905.50;;;3.09;100.00
53262;BME280;39658;51.090;-1.786;2023-03-14T03:56:55;98897.69;;;3.09;100.00
53262;BME280;39658;51.090;-1.786;2023-03-14T03:59:22;98919.41;;;3.22;100.00
53262;BME280;39658;51.090;-1.786;2023-03-14T04:01:49;98935.28;;;3.32;100.00
53262;BME280;39658;51.090;-1.786;2023-03-14T04:04:15;98950.50;;;3.38;100.00
53262;BME280;39658;51.090;-1.786;2023-03-14T04:06:42;98945.81;;;3.43;100.00
53262;BME280;39658;51.090;-1.786;2023-03-14T04:09:09;98942.88;;;3.35;100.00
53262;BME280;39658;51.090;-1.786;2023-03-14T04:11:38;98948.31;;;3.32;100.00
53262;BME280;39658;51.090;-1.786;2023-03-14T04:14:05;98953.22;;;3.36;100.00
53262;BME280;39658;51.090;-1.786;2023-03-14T04:16:32;98960.09;;;3.37;100.00
53262;BME280;39658;51.090;-1.786;2023-03-14T04:18:59;98960.19;;;3.36;100.00
53262;BME280;39658;51.090;-1.786;2023-03-14T04:21:26;98969.47;;;3.40;100.00
53262;BME280;39658;51.090;-1.786;2023-03-14T04:23:53;98977.28;;;3.40;100.00
53262;BME280;39658;51.090;-1.786;2023-03-14T04:26:20;98984.28;;;3.39;100.00
53262;BME280;39658;51.090;-1.786;2023-03-14T04:28:48;98992.63;;;3.45;100.00
53262;BME280;39658;51.090;-1.786;2023-03-14T04:31:16;98997.72;;;3.46;100.00
53262;BME280;39658;51.090;-1.786;2023-03-14T04:33:43;99003.81;;;3.47;100.00
53262;BME280;39658;51.090;-1.786;2023-03-14T04:36:11;99006.94;;;3.52;100.00
53262;BME280;39658;51.090;-1.786;2023-03-14T04:38:38;99013.44;;;3.59;100.00
53262;BME280;39658;51.090;-1.786;2023-03-14T04:41:05;99022.72;;;3.63;100.00
53262;BME280;39658;51.090;-1.786;2023-03-14T04:43:32;99034.72;;;3.66;100.00
53262;BME280;39658;51.090;-1.786;2023-03-14T04:46:01;99029.41;;;3.67;100.00
53262;BME280;39658;51.090;-1.786;2023-03-14T04:48:28;99026.50;;;3.72;100.00
53262;BME280;39658;51.090;-1.786;2023-03-14T04:50:54;99035.25;;;3.71;100.00
53262;BME280;39658;51.090;-1.786;2023-03-14T04:53:21;99032.75;;;3.69;100.00
53262;BME280;39658;51.090;-1.786;2023-03-14T04:55:49;99039.13;;;3.78;100.00
53262;BME280;39658;51.090;-1.786;2023-03-14T04:58:16;99041.66;;;3.80;100.00
53262;BME280;39658;51.090;-1.786;2023-03-14T05:00:43;99043.19;;;3.82;100.00
53262;BME280;39658;51.090;-1.786;2023-03-14T05:03:11;99049.06;;;3.86;100.00
53262;BME280;39658;51.090;-1.786;2023-03-14T05:05:38;99061.34;;;3.84;100.00
53262;BME280;39658;51.090;-1.786;2023-03-14T05:08:05;99055.19;;;3.72;100.00
53262;BME280;39658;51.090;-1.786;2023-03-14T05:10:31;99068.34;;;3.56;100.00
53262;BME280;39658;51.090;-1.786;2023-03-14T05:12:59;99062.63;;;3.36;100.00
53262;BME280;39658;51.090;-1.786;2023-03-14T05:15:25;99078.00;;;3.27;100.00
53262;BME280;39658;51.090;-1.786;2023-03-14T05:17:53;99083.22;;;3.27;100.00
53262;BME280;39658;51.090;-1.786;2023-03-14T05:20:21;99082.16;;;3.29;100.00
53262;BME280;39658;51.090;-1.786;2023-03-14T05:22:48;99080.13;;;3.34;100.00
53262;BME280;39658;51.090;-1.786;2023-03-14T05:25:14;99073.44;;;3.30;100.00
53262;BME280;39658;51.090;-1.786;2023-03-14T05:27:41;99056.59;;;3.21;100.00
53262;BME280;39658;51.090;-1.786;2023-03-14T05:30:09;99077.63;;;3.04;100.00
53262;BME280;39658;51.090;-1.786;2023-03-14T05:32:36;99080.63;;;2.98;100.00
53262;BME280;39658;51.090;-1.786;2023-03-14T05:35:03;99093.44;;;3.01;100.00
53262;BME280;39658;51.090;-1.786;2023-03-14T05:37:31;99090.56;;;2.91;100.00
53262;BME280;39658;51.090;-1.786;2023-03-14T05:39:59;99099.59;;;2.85;100.00
53262;BME280;39658;51.090;-1.786;2023-03-14T05:42:26;99106.19;;;2.91;100.00
53262;BME280;39658;51.090;-1.786;2023-03-14T05:44:53;99106.66;;;2.83;100.00
53262;BME280;39658;51.090;-1.786;2023-03-14T05:47:19;99116.25;;;2.83;100.00
53262;BME280;39658;51.090;-1.786;2023-03-14T05:49:46;99133.69;;;2.81;100.00
53262;BME280;39658;51.090;-1.786;2023-03-14T05:52:13;99139.63;;;2.68;100.00
53262;BME280;39658;51.090;-1.786;2023-03-14T05:54:42;99138.41;;;2.60;100.00
53262;BME280;39658;51.090;-1.786;2023-03-14T05:57:08;99140.94;;;2.61;100.00
53262;BME280;39658;51.090;-1.786;2023-03-14T05:59:35;99149.47;;;2.63;100.00
53262;BME280;39658;51.090;-1.786;2023-03-14T06:02:02;99161.47;;;2.66;100.00
53262;BME280;39658;51.090;-1.786;2023-03-14T06:04:29;99170.41;;;2.76;100.00
53262;BME280;39658;51.090;-1.786;2023-03-14T06:06:56;99165.97;;;2.78;100.00
53262;BME280;39658;51.090;-1.786;2023-03-14T06:09:23;99181.66;;;2.77;100.00
53262;BME280;39658;51.090;-1.786;2023-03-14T06:11:51;99190.84;;;2.68;100.00
53262;BME280;39658;51.090;-1.786;2023-03-14T06:14:18;99195.13;;;2.69;100.00
53262;BME280;39658;51.090;-1.786;2023-03-14T06:16:44;99192.88;;;2.63;100.00
53262;BME280;39658;51.090;-1.786;2023-03-14T06:19:13;99195.47;;;2.63;100.00
53262;BME280;39658;51.090;-1.786;2023-03-14T06:21:40;99207.53;;;2.64;100.00
53262;BME280;39658;51.090;-1.786;2023-03-14T06:24:07;99207.41;;;2.51;100.00
53262;BME280;39658;51.090;-1.786;2023-03-14T06:26:33;99213.88;;;2.60;100.00
53262;BME280;39658;51.090;-1.786;2023-03-14T06:29:02;99220.56;;;2.64;100.00
53262;BME280;39658;51.090;-1.786;2023-03-14T06:31:29;99230.19;;;2.78;100.00
53262;BME280;39658;51.090;-1.786;2023-03-14T06:33:56;99225.22;;;2.89;100.00
53262;BME280;39658;51.090;-1.786;2023-03-14T06:36:23;99234.59;;;2.92;100.00
53262;BME280;39658;51.090;-1.786;2023-03-14T06:38:50;99235.72;;;2.87;100.00
53262;BME280;39658;51.090;-1.786;2023-03-14T06:41:16;99253.84;;;2.89;100.00
53262;BME280;39658;51.090;-1.786;2023-03-14T06:43:43;99259.41;;;2.83;100.00
53262;BME280;39658;51.090;-1.786;2023-03-14T06:46:12;99265.97;;;2.74;100.00
53262;BME280;39658;51.090;-1.786;2023-03-14T06:48:38;99270.59;;;2.69;100.00
53262;BME280;39658;51.090;-1.786;2023-03-14T06:51:05;99279.53;;;2.79;100.00
53262;BME280;39658;51.090;-1.786;2023-03-14T06:53:32;99280.69;;;2.90;100.00
53262;BME280;39658;51.090;-1.786;2023-03-14T06:55:59;99289.16;;;2.93;100.00
53262;BME280;39658;51.090;-1.786;2023-03-14T06:58:26;99292.81;;;2.91;100.00
53262;BME280;39658;51.090;-1.786;2023-03-14T07:00:53;99296.50;;;2.86;100.00
53262;BME280;39658;51.090;-1.786;2023-03-14T07:03:21;99313.13;;;2.84;100.00
53262;BME280;39658;51.090;-1.786;2023-03-14T07:05:48;99313.88;;;2.86;100.00
53262;BME280;39658;51.090;-1.786;2023-03-14T07:08:15;99322.69;;;2.83;100.00
53262;BME280;39658;51.090;-1.786;2023-03-14T07:10:42;99328.75;;;2.84;100.00
53262;BME280;39658;51.090;-1.786;2023-03-14T07:13:09;99332.69;;;2.91;100.00
53262;BME280;39658;51.090;-1.786;2023-03-14T07:15:35;99342.44;;;2.87;100.00
53262;BME280;39658;51.090;-1.786;2023-03-14T07:18:02;99350.31;;;3.02;100.00
53262;BME280;39658;51.090;-1.786;2023-03-14T07:20:30;99357.69;;;3.10;100.00
53262;BME280;39658;51.090;-1.786;2023-03-14T07:22:58;99363.38;;;3.16;100.00
53262;BME280;39658;51.090;-1.786;2023-03-14T07:25:26;99357.06;;;3.20;100.00
53262;BME280;39658;51.090;-1.786;2023-03-14T07:27:52;99372.25;;;3.28;100.00
53262;BME280;39658;51.090;-1.786;2023-03-14T07:30:19;99382.31;;;3.34;100.00
53262;BME280;39658;51.090;-1.786;2023-03-14T07:32:47;99381.88;;;3.42;100.00
53262;BME280;39658;51.090;-1.786;2023-03-14T07:35:14;99380.75;;;3.46;100.00
53262;BME280;39658;51.090;-1.786;2023-03-14T07:37:42;99395.66;;;3.44;100.00
53262;BME280;39658;51.090;-1.786;2023-03-14T07:40:10;99406.00;;;3.46;100.00
53262;BME280;39658;51.090;-1.786;2023-03-14T07:42:40;99415.13;;;3.53;100.00
53262;BME280;39658;51.090;-1.786;2023-03-14T07:45:08;99421.28;;;3.52;100.00
53262;BME280;39658;51.090;-1.786;2023-03-14T07:47:34;99430.91;;;3.66;100.00
53262;BME280;39658;51.090;-1.786;2023-03-14T07:50:02;99429.66;;;3.87;100.00
53262;BME280;39658;51.090;-1.786;2023-03-14T07:52:29;99436.44;;;3.90;100.00
53262;BME280;39658;51.090;-1.786;2023-03-14T07:54:57;99430.19;;;3.78;100.00
53262;BME280;39658;51.090;-1.786;2023-03-14T07:57:23;99442.94;;;3.83;100.00
53262;BME280;39658;51.090;-1.786;2023-03-14T07:59:50;99456.34;;;3.76;100.00
53262;BME280;39658;51.090;-1.786;2023-03-14T08:02:17;99467.63;;;3.91;100.00
53262;BME280;39658;51.090;-1.786;2023-03-14T08:04:47;99478.22;;;4.19;100.00
53262;BME280;39658;51.090;-1.786;2023-03-14T08:07:14;99477.47;;;4.45;100.00
53262;BME280;39658;51.090;-1.786;2023-03-14T08:09:41;99478.91;;;4.51;100.00
53262;BME280;39658;51.090;-1.786;2023-03-14T08:12:09;99497.91;;;4.67;100.00
53262;BME280;39658;51.090;-1.786;2023-03-14T08:14:36;99506.75;;;4.79;100.00
53262;BME280;39658;51.090;-1.786;2023-03-14T08:17:03;99511.78;;;4.82;100.00
53262;BME280;39658;51.090;-1.786;2023-03-14T08:19:30;99514.22;;;4.85;100.00
53262;BME280;39658;51.090;-1.786;2023-03-14T08:21:57;99521.59;;;4.79;100.00
53262;BME280;39658;51.090;-1.786;2023-03-14T08:24:23;99534.94;;;4.74;100.00
53262;BME280;39658;51.090;-1.786;2023-03-14T08:26:50;99549.75;;;4.74;100.00
53262;BME280;39658;51.090;-1.786;2023-03-14T08:29:18;99558.72;;;4.70;100.00
53262;BME280;39658;51.090;-1.786;2023-03-14T08:31:45;99565.88;;;4.66;100.00
53262;BME280;39658;51.090;-1.786;2023-03-14T08:34:14;99567.84;;;4.62;100.00
53262;BME280;39658;51.090;-1.786;2023-03-14T08:36:41;99571.38;;;4.61;100.00
53262;BME280;39658;51.090;-1.786;2023-03-14T08:39:08;99591.16;;;4.65;100.00
53262;BME280;39658;51.090;-1.786;2023-03-14T08:41:35;99601.13;;;4.73;100.00
53262;BME280;39658;51.090;-1.786;2023-03-14T08:44:05;99605.25;;;4.77;100.00
53262;BME280;39658;51.090;-1.786;2023-03-14T08:46:33;99611.69;;;4.86;100.00
53262;BME280;39658;51.090;-1.786;2023-03-14T08:49:00;99610.28;;;4.95;100.00
53262;BME280;39658;51.090;-1.786;2023-03-14T08:51:27;99613.47;;;5.00;100.00
53262;BME280;39658;51.090;-1.786;2023-03-14T08:53:54;99610.47;;;5.06;100.00
53262;BME280;39658;51.090;-1.786;2023-03-14T08:56:20;99622.34;;;5.12;100.00
53262;BME280;39658;51.090;-1.786;2023-03-14T08:58:47;99630.91;;;5.14;100.00
53262;BME280;39658;51.090;-1.786;2023-03-14T09:01:14;99640.91;;;5.07;100.00
53262;BME280;39658;51.090;-1.786;2023-03-14T09:03:42;99657.03;;;5.14;100.00
53262;BME280;39658;51.090;-1.786;2023-03-14T09:06:10;99663.31;;;5.11;100.00
53262;BME280;39658;51.090;-1.786;2023-03-14T09:08:36;99671.59;;;5.03;100.00
53262;BME280;39658;51.090;-1.786;2023-03-14T09:11:07;99677.84;;;5.01;100.00
53262;BME280;39658;51.090;-1.786;2023-03-14T09:13:34;99679.34;;;5.05;100.00
53262;BME280;39658;51.090;-1.786;2023-03-14T09:16:00;99688.13;;;5.04;100.00
53262;BME280;39658;51.090;-1.786;2023-03-14T09:18:27;99701.44;;;4.99;100.00
53262;BME280;39658;51.090;-1.786;2023-03-14T09:20:56;99703.59;;;5.07;100.00
53262;BME280;39658;51.090;-1.786;2023-03-14T09:23:23;99710.44;;;5.24;100.00
53262;BME280;39658;51.090;-1.786;2023-03-14T09:25:54;99718.47;;;5.50;100.00
53262;BME280;39658;51.090;-1.786;2023-03-14T09:28:21;99727.63;;;5.57;100.00
53262;BME280;39658;51.090;-1.786;2023-03-14T09:30:47;99727.25;;;5.49;100.00
53262;BME280;39658;51.090;-1.786;2023-03-14T09:33:15;99738.00;;;5.58;100.00
53262;BME280;39658;51.090;-1.786;2023-03-14T09:35:41;99741.25;;;5.77;100.00
53262;BME280;39658;51.090;-1.786;2023-03-14T09:38:10;99756.16;;;6.18;100.00
53262;BME280;39658;51.090;-1.786;2023-03-14T09:40:37;99776.38;;;5.72;100.00
53262;BME280;39658;51.090;-1.786;2023-03-14T09:43:05;99787.63;;;5.30;100.00
53262;BME280;39658;51.090;-1.786;2023-03-14T09:45:34;99795.53;;;5.14;100.00
53262;BME280;39658;51.090;-1.786;2023-03-14T09:48:03;99812.09;;;5.29;100.00
53262;BME280;39658;51.090;-1.786;2023-03-14T09:50:34;99836.88;;;5.52;100.00
53262;BME280;39658;51.090;-1.786;2023-03-14T09:53:08;99847.53;;;5.78;100.00
53262;BME280;39658;51.090;-1.786;2023-03-14T09:55:38;99846.53;;;6.38;100.00
53262;BME280;39658;51.090;-1.786;2023-03-14T09:58:17;99843.00;;;5.81;100.00
53262;BME280;39658;51.090;-1.786;2023-03-14T10:00:45;99857.97;;;5.18;100.00
53262;BME280;39658;51.090;-1.786;2023-03-14T10:03:25;99864.25;;;5.16;100.00
53262;BME280;39658;51.090;-1.786;2023-03-14T10:05:54;99870.28;;;5.47;100.00
53262;BME280;39658;51.090;-1.786;2023-03-14T10:08:21;99877.13;;;6.23;100.00
53262;BME280;39658;51.090;-1.786;2023-03-14T10:10:50;99883.13;;;6.25;100.00
53262;BME280;39658;51.090;-1.786;2023-03-14T10:13:20;99897.78;;;6.42;100.00
53262;BME280;39658;51.090;-1.786;2023-03-14T10:15:48;99898.50;;;7.00;100.00
53262;BME280;39658;51.090;-1.786;2023-03-14T10:18:15;99897.28;;;7.06;100.00
53262;BME280;39658;51.090;-1.786;2023-03-14T10:20:43;99907.44;;;7.37;100.00
53262;BME280;39658;51.090;-1.786;2023-03-14T10:23:26;99901.53;;;8.25;100.00
53262;BME280;39658;51.090;-1.786;2023-03-14T10:26:03;99877.50;;;12.98;100.00
53262;BME280;39658;51.090;-1.786;2023-03-14T10:28:31;99880.72;;;14.17;100.00
53262;BME280;39658;51.090;-1.786;2023-03-14T10:30:59;99898.81;;;11.19;100.00
53262;BME280;39658;51.090;-1.786;2023-03-14T10:33:27;99906.66;;;9.85;100.00
53262;BME280;39658;51.090;-1.786;2023-03-14T10:35:56;99917.34;;;9.24;100.00
53262;BME280;39658;51.090;-1.786;2023-03-14T10:38:26;99924.56;;;10.15;100.00
53262;BME280;39658;51.090;-1.786;2023-03-14T10:40:54;99918.00;;;14.43;100.00
53262;BME280;39658;51.090;-1.786;2023-03-14T10:43:25;99927.56;;;13.69;100.00
53262;BME280;39658;51.090;-1.786;2023-03-14T10:45:55;99934.88;;;13.95;100.00
53262;BME280;39658;51.090;-1.786;2023-03-14T10:48:29;99942.31;;;12.72;100.00
53262;BME280;39658;51.090;-1.786;2023-03-14T10:50:59;99946.09;;;13.69;100.00
53262;BME280;39658;51.090;-1.786;2023-03-14T10:53:33;99956.66;;;16.96;100.00
53262;BME280;39658;51.090;-1.786;2023-03-14T10:56:03;99962.66;;;17.99;87.02
53262;BME280;39658;51.090;-1.786;2023-03-14T10:58:35;99971.47;;;18.88;82.92
53262;BME280;39658;51.090;-1.786;2023-03-14T11:01:12;99977.91;;;19.57;70.13
53262;BME280;39658;51.090;-1.786;2023-03-14T11:03:45;99985.59;;;18.49;75.22
53262;BME280;39658;51.090;-1.786;2023-03-14T11:06:20;100003.28;;;15.59;90.76
53262;BME280;39658;51.090;-1.786;2023-03-14T11:08:53;100013.00;;;12.39;100.00
53262;BME280;39658;51.090;-1.786;2023-03-14T11:11:23;100024.63;;;11.07;100.00
53262;BME280;39658;51.090;-1.786;2023-03-14T11:14:04;100038.44;;;9.83;100.00
53262;BME280;39658;51.090;-1.786;2023-03-14T11:16:44;100039.59;;;8.68;100.00
53262;BME280;39658;51.090;-1.786;2023-03-14T11:22:05;100067.72;;;7.87;100.00
53262;BME280;39658;51.090;-1.786;2023-03-14T11:24:48;100074.03;;;7.43;100.00
53262;BME280;39658;51.090;-1.786;2023-03-14T11:27:20;100078.78;;;7.09;100.00
53262;BME280;39658;51.090;-1.786;2023-03-14T11:29:54;100085.13;;;7.05;100.00
53262;BME280;39658;51.090;-1.786;2023-03-14T11:32:29;100095.91;;;7.57;100.00
53262;BME280;39658;51.090;-1.786;2023-03-14T11:35:02;100084.16;;;12.10;100.00
53262;BME280;39658;51.090;-1.786;2023-03-14T11:37:34;100066.25;;;15.03;100.00
53262;BME280;39658;51.090;-1.786;2023-03-14T11:40:07;100075.13;;;16.40;100.00
53262;BME280;39658;51.090;-1.786;2023-03-14T11:42:37;100069.22;;;20.00;82.27
53262;BME280;39658;51.090;-1.786;2023-03-14T11:45:15;100081.16;;;21.03;68.62
53262;BME280;39658;51.090;-1.786;2023-03-14T11:47:46;100086.19;;;18.32;70.19
53262;BME280;39658;51.090;-1.786;2023-03-14T11:50:21;100089.63;;;18.82;72.17
53262;BME280;39658;51.090;-1.786;2023-03-14T11:52:52;100094.09;;;20.47;52.89
53262;BME280;39658;51.090;-1.786;2023-03-14T11:55:24;100085.31;;;20.76;58.59
53262;BME280;39658;51.090;-1.786;2023-03-14T11:57:56;100104.81;;;17.91;65.04
53262;BME280;39658;51.090;-1.786;2023-03-14T12:00:26;100100.44;;;14.59;98.70
53262;BME280;39658;51.090;-1.786;2023-03-14T12:02:57;100115.38;;;12.80;100.00
53262;BME280;39658;51.090;-1.786;2023-03-14T12:05:42;100123.63;;;12.23;100.00
53262;BME280;39658;51.090;-1.786;2023-03-14T12:08:31;100124.63;;;11.67;100.00
53262;BME280;39658;51.090;-1.786;2023-03-14T12:11:01;100115.28;;;17.33;100.00
53262;BME280;39658;51.090;-1.786;2023-03-14T12:13:29;100117.88;;;18.60;74.19
53262;BME280;39658;51.090;-1.786;2023-03-14T12:16:04;100127.25;;;15.13;91.96
53262;BME280;39658;51.090;-1.786;2023-03-14T12:18:33;100141.56;;;12.41;100.00
53262;BME280;39658;51.090;-1.786;2023-03-14T12:21:05;100145.28;;;11.05;100.00
53262;BME280;39658;51.090;-1.786;2023-03-14T12:23:36;100146.00;;;13.65;100.00
53262;BME280;39658;51.090;-1.786;2023-03-14T12:26:17;100137.03;;;18.72;84.45
53262;BME280;39658;51.090;-1.786;2023-03-14T12:28:49;100137.97;;;20.22;62.01
53262;BME280;39658;51.090;-1.786;2023-03-14T12:31:38;100140.47;;;20.85;51.08
53262;BME280;39658;51.090;-1.786;2023-03-14T12:34:29;100134.72;;;21.99;48.92
53262;BME280;39658;51.090;-1.786;2023-03-14T12:37:12;100141.59;;;21.06;51.07
53262;BME280;39658;51.090;-1.786;2023-03-14T12:39:47;100142.16;;;17.91;59.29
53262;BME280;39658;51.090;-1.786;2023-03-14T12:42:22;100140.34;;;17.14;62.24
53262;BME280;39658;51.090;-1.786;2023-03-14T12:45:22;100151.00;;;15.15;88.88
53262;BME280;39658;51.090;-1.786;2023-03-14T12:48:00;100153.69;;;13.78;96.17
53262;BME280;39658;51.090;-1.786;2023-03-14T12:50:36;100158.59;;;11.38;100.00
53262;BME280;39658;51.090;-1.786;2023-03-14T12:56:20;100154.16;;;14.90;100.00
53262;BME280;39658;51.090;-1.786;2023-03-14T12:58:58;100148.88;;;19.02;69.45
53262;BME280;39658;51.090;-1.786;2023-03-14T13:01:32;100148.44;;;19.69;50.45
53262;BME280;39658;51.090;-1.786;2023-03-14T13:04:04;100156.16;;;16.27;74.32
53262;BME280;39658;51.090;-1.786;2023-03-14T13:06:49;100157.13;;;19.80;57.64